»·PEaware :: N148WT KSNA-KPSP

N148WT :: KSNA-KPSP

FLIGHT INFORMATION

Flight Status: Arrived
Operator: Privately registered:
United States
More flights under this callsign
Pilot: Vlad D. (11271)
Aircraft: Unknown
(B60T)
More flights by this aircraft type
Origin: KSNA John Wayne-Orange Co
United States
Destination: KPSP Palm Springs Intl
United States
More flights between these airports :: More routes between these airports
Route: +PATTERN
File this flight plan on PilotEdge
Remarks:
Altitude:
(Current/Filed)
11,500ft
Speed:
(Current/Filed)
180kts
Departed: 11-May-16 03:21 PM
Arrived: 11-May-16 03:50 PM
Distance/Time
Traveled:
68nm/0:29
Distance/Time
To Go:
Arrived

Flight Plot

Page will automatically refresh every two minutes.

Flight plan parsing failed; only flown route is shown


Map Options




Map Legend


Flown Route
Filed Route
Departure Airport
Arrival Airport
Navaid (VOR, NDB)
Fix

Horizontal Profiles

Position Reports

Time Latitude Longitude Heading Altitude Ground
Speed
11-May-16 14:50 33.674983 -117.871503 219 59ft 0kts
11-May-16 14:51 33.674983 -117.871503 219 59ft 0kts
11-May-16 14:52 33.674983 -117.871503 219 59ft 0kts
11-May-16 14:53 33.674983 -117.871503 219 59ft 0kts
11-May-16 14:54 33.674982 -117.871504 219 59ft 0kts
11-May-16 14:55 33.674980 -117.871507 219 59ft 0kts
11-May-16 14:56 33.674977 -117.871509 219 59ft 0kts
11-May-16 14:57 33.674974 -117.871512 219 59ft 0kts
11-May-16 14:58 33.674971 -117.871515 219 59ft 0kts
11-May-16 14:59 33.674969 -117.871518 219 59ft 0kts
11-May-16 15:00 33.674966 -117.871520 219 59ft 0kts
11-May-16 15:01 33.674963 -117.871523 219 59ft 0kts
11-May-16 15:02 33.674960 -117.871526 219 59ft 0kts
11-May-16 15:03 33.674957 -117.871529 219 59ft 0kts
11-May-16 15:04 33.674954 -117.871532 219 59ft 0kts
11-May-16 15:05 33.674952 -117.871535 219 59ft 0kts
11-May-16 15:06 33.674626 -117.871247 104 59ft 10kts
11-May-16 15:07 33.676216 -117.870067 25 59ft 7kts
11-May-16 15:08 33.676785 -117.869138 24 59ft 0kts
11-May-16 15:09 33.676787 -117.869137 24 59ft 0kts
11-May-16 15:10 33.676790 -117.869135 24 59ft 0kts
11-May-16 15:11 33.676797 -117.869132 23 59ft 0kts
11-May-16 15:12 33.676886 -117.869109 352 59ft 2kts
11-May-16 15:13 33.678601 -117.868611 27 59ft 5kts
11-May-16 15:14 33.679832 -117.867855 25 59ft 5kts
11-May-16 15:15 33.680923 -117.866636 116 59ft 5kts
11-May-16 15:16 33.680807 -117.866377 115 59ft 0kts
11-May-16 15:17 33.680805 -117.866373 115 59ft 0kts
11-May-16 15:18 33.680804 -117.866369 115 59ft 0kts
11-May-16 15:19 33.680071 -117.866012 204 59ft 15kts
11-May-16 15:20 33.650343 -117.875513 151 1316ft 162kts
11-May-16 15:21 33.644802 -117.821967 91 2789ft 142kts
11-May-16 15:22 33.643269 -117.773948 91 4556ft 143kts
11-May-16 15:23 33.645841 -117.725760 90 7205ft 146kts
11-May-16 15:24 33.654730 -117.676791 53 8933ft 166kts
11-May-16 15:25 33.687288 -117.636484 51 10132ft 173kts
11-May-16 15:26 33.707313 -117.583579 83 10986ft 179kts
11-May-16 15:27 33.713069 -117.522883 81 11490ft 197kts
11-May-16 15:28 33.726330 -117.453179 75 11569ft 221kts
11-May-16 15:29 33.746402 -117.382038 69 11199ft 228kts
11-May-16 15:30 33.766824 -117.326395 68 11447ft 213kts
11-May-16 15:31 33.788136 -117.259388 70 11490ft 215kts
11-May-16 15:32 33.807850 -117.190556 73 11487ft 219kts
11-May-16 15:33 33.827026 -117.121198 72 11495ft 218kts
11-May-16 15:34 33.844621 -117.051244 74 11502ft 219kts
11-May-16 15:35 33.863153 -116.981943 71 11519ft 217kts
11-May-16 15:36 33.881567 -116.913685 77 11532ft 212kts
11-May-16 15:37 33.888724 -116.843493 91 11534ft 211kts
11-May-16 15:38 33.883193 -116.772314 94 11453ft 208kts
11-May-16 15:39 33.880154 -116.712108 94 9582ft 151kts
11-May-16 15:40 33.877127 -116.670311 92 7551ft 111kts
11-May-16 15:41 33.874216 -116.630870 97 5585ft 150kts
11-May-16 15:42 33.854162 -116.576452 130 3566ft 190kts
11-May-16 15:43 33.811955 -116.544920 148 2024ft 161kts
11-May-16 15:44 33.822946 -116.505804 49 2027ft 138kts
11-May-16 15:45 33.848211 -116.481615 0 2039ft 129kts
11-May-16 15:46 33.876221 -116.510030 283 1861ft 120kts
11-May-16 15:47 33.856799 -116.532197 146 1191ft 115kts
11-May-16 15:48 33.834273 -116.511749 139 524ft 87kts
11-May-16 15:49 33.824472 -116.504263 174 480ft 12kts
11-May-16 15:50 33.824031 -116.504192 170 480ft 0kts
11-May-16 15:51 33.823979 -116.504183 172 480ft 1kts
11-May-16 15:52 33.823285 -116.504251 266 480ft 0kts
11-May-16 15:53 33.824409 -116.505927 322 480ft 6kts
11-May-16 15:54 33.825110 -116.507747 317 480ft 7kts
11-May-16 15:55 33.825410 -116.508822 329 480ft 7kts
11-May-16 15:56 33.825636 -116.508608 81 480ft 0kts
11-May-16 15:57 33.825636 -116.508605 81 480ft 0kts
11-May-16 15:58 33.825637 -116.508601 81 480ft 0kts
11-May-16 15:59 33.825637 -116.508597 81 480ft 0kts
11-May-16 16:00 33.825638 -116.508593 81 480ft 0kts
11-May-16 16:01 33.825639 -116.508589 81 480ft 0kts
11-May-16 16:02 33.825924 -116.507736 71 480ft 7kts
11-May-16 16:03 33.828213 -116.508424 321 480ft 19kts

Navigation Log

Ident Type
Flight plan parsing failed, navigation log unavailable